createdAt,value
2022-12-08T00:00:50.450Z,96.30
2022-12-08T00:01:54.292Z,96.30
2022-12-08T00:02:58.014Z,96.30
2022-12-08T00:04:04.627Z,96.30
2022-12-08T00:05:22.749Z,96.30
2022-12-08T00:06:47.693Z,96.30
2022-12-08T00:08:09.004Z,96.30
2022-12-08T00:09:25.905Z,96.30
2022-12-08T00:10:48.537Z,96.30
2022-12-08T00:11:58.219Z,96.30
2022-12-08T00:13:00.636Z,96.30
2022-12-08T00:14:04.187Z,96.30
2022-12-08T00:15:07.914Z,96.30
2022-12-08T00:16:13.136Z,96.30
2022-12-08T00:17:17.920Z,96.30
2022-12-08T00:18:25.162Z,96.30
2022-12-08T00:19:29.617Z,96.30
2022-12-08T00:20:35.248Z,96.30
2022-12-08T00:21:38.983Z,96.30
2022-12-08T00:22:44.187Z,96.30
2022-12-08T00:23:49.209Z,96.30
2022-12-08T00:24:53.409Z,96.30
2022-12-08T00:26:02.626Z,96.30
2022-12-08T00:27:12.103Z,96.30
2022-12-08T00:28:17.968Z,96.30
2022-12-08T00:29:21.993Z,96.30
2022-12-08T00:30:24.531Z,96.30
2022-12-08T00:31:29.697Z,96.30
2022-12-08T00:32:35.222Z,96.30
2022-12-08T00:33:39.241Z,96.30
2022-12-08T00:34:41.805Z,96.30
2022-12-08T00:35:45.185Z,96.30
2022-12-08T00:36:47.897Z,96.30
2022-12-08T00:37:53.122Z,96.30
2022-12-08T00:38:59.130Z,96.30
2022-12-08T00:40:02.810Z,96.30
2022-12-08T00:41:14.840Z,96.30
2022-12-08T00:42:18.485Z,96.30
2022-12-08T00:43:21.994Z,96.30
2022-12-08T00:44:26.990Z,96.30
2022-12-08T00:45:32.861Z,96.30
2022-12-08T00:46:37.040Z,96.30
2022-12-08T00:47:40.427Z,96.30
2022-12-08T00:48:42.761Z,96.30
2022-12-08T00:49:46.197Z,96.30
2022-12-08T00:50:49.000Z,96.30
2022-12-08T00:51:56.382Z,96.30
2022-12-08T00:52:59.059Z,96.30
2022-12-08T00:54:02.515Z,96.30
2022-12-08T00:55:06.107Z,96.30
2022-12-08T00:56:11.984Z,96.30
2022-12-08T00:57:14.482Z,96.30
2022-12-08T00:58:18.126Z,96.30
2022-12-08T00:59:23.713Z,96.30
2022-12-08T01:00:26.533Z,96.30
2022-12-08T01:01:29.915Z,96.30
2022-12-08T01:02:34.681Z,96.30
2022-12-08T01:03:38.842Z,96.30
2022-12-08T01:04:42.918Z,96.30
2022-12-08T01:05:45.484Z,96.30
2022-12-08T01:06:50.645Z,96.30
2022-12-08T01:07:54.210Z,96.30
2022-12-08T01:08:56.988Z,96.30
2022-12-08T01:10:01.193Z,96.30
2022-12-08T01:11:04.953Z,96.30
2022-12-08T01:12:09.932Z,96.30
2022-12-08T01:13:15.764Z,96.30
2022-12-08T01:14:19.550Z,96.30
2022-12-08T01:15:22.572Z,96.30
2022-12-08T01:16:30.696Z,96.30
2022-12-08T01:17:34.738Z,96.30
2022-12-08T01:18:38.730Z,96.30
2022-12-08T01:19:43.731Z,96.30
2022-12-08T01:20:47.017Z,96.30
2022-12-08T01:21:50.840Z,96.30
2022-12-08T01:22:53.462Z,96.30
2022-12-08T01:24:02.722Z,96.30
2022-12-08T01:25:06.716Z,96.30
2022-12-08T01:26:13.209Z,96.30
2022-12-08T01:27:20.666Z,96.30
2022-12-08T01:28:25.283Z,96.30
2022-12-08T01:29:29.009Z,96.30
2022-12-08T01:30:33.773Z,96.30
2022-12-08T01:31:40.041Z,96.30
2022-12-08T01:32:43.853Z,96.30
2022-12-08T01:33:48.385Z,96.30
2022-12-08T01:34:50.708Z,96.30
2022-12-08T01:35:55.402Z,96.30
2022-12-08T01:37:00.890Z,96.30
2022-12-08T01:38:03.307Z,96.30
2022-12-08T01:39:08.868Z,96.30
2022-12-08T01:40:14.225Z,96.30
2022-12-08T01:41:26.282Z,96.30
2022-12-08T01:42:30.009Z,96.30
2022-12-08T01:43:56.934Z,96.30
2022-12-08T01:45:03.977Z,96.30
2022-12-08T01:46:09.710Z,96.30
2022-12-08T01:47:12.695Z,96.30
2022-12-08T01:48:23.554Z,96.30
2022-12-08T01:49:30.505Z,96.30
2022-12-08T01:50:35.006Z,96.30
2022-12-08T01:51:42.982Z,96.30
2022-12-08T01:52:51.268Z,96.30
2022-12-08T01:53:54.118Z,96.30
2022-12-08T01:55:04.280Z,96.30
2022-12-08T01:56:09.837Z,96.30
2022-12-08T01:57:19.479Z,96.30
2022-12-08T01:58:28.487Z,96.30
2022-12-08T01:59:33.088Z,96.30
2022-12-08T02:00:38.870Z,96.30
2022-12-08T02:01:41.728Z,96.30
2022-12-08T02:02:58.371Z,96.30
2022-12-08T02:04:06.234Z,96.30
2022-12-08T02:05:10.811Z,96.30
2022-12-08T02:06:14.200Z,96.30
2022-12-08T02:07:20.589Z,96.30
2022-12-08T02:08:24.415Z,96.30
2022-12-08T02:09:27.941Z,96.30
2022-12-08T02:10:35.376Z,96.30
2022-12-08T02:11:41.787Z,96.30
2022-12-08T02:12:48.411Z,96.30
2022-12-08T02:13:54.268Z,96.30
2022-12-08T02:14:58.410Z,96.30
2022-12-08T02:16:11.624Z,96.30
2022-12-08T02:17:36.206Z,96.30
2022-12-08T02:19:22.402Z,96.30
2022-12-08T02:20:43.264Z,96.30
2022-12-08T02:21:56.281Z,96.30
2022-12-08T02:23:08.042Z,96.30
2022-12-08T02:24:20.463Z,96.30
2022-12-08T02:25:32.431Z,96.30
2022-12-08T02:27:22.122Z,96.30
2022-12-08T02:28:55.022Z,96.30
2022-12-08T02:30:21.037Z,96.30
2022-12-08T02:31:43.417Z,96.30
2022-12-08T02:33:28.816Z,96.30
2022-12-08T02:34:40.830Z,96.30
2022-12-08T02:35:55.147Z,96.30
2022-12-08T02:37:09.052Z,96.30
2022-12-08T02:38:21.700Z,96.30
2022-12-08T02:39:35.772Z,96.30
2022-12-08T02:40:57.519Z,96.30
2022-12-08T02:42:13.389Z,96.30
2022-12-08T02:43:26.559Z,96.30
2022-12-08T02:44:36.283Z,96.30
2022-12-08T02:45:45.803Z,96.30
2022-12-08T02:46:55.493Z,96.30
2022-12-08T02:47:59.425Z,96.30
2022-12-08T02:49:05.138Z,96.30
2022-12-08T02:50:11.054Z,96.30
2022-12-08T02:51:14.495Z,96.30
2022-12-08T02:52:41.039Z,96.30
2022-12-08T02:53:47.805Z,96.30
2022-12-08T02:54:57.050Z,96.30
2022-12-08T02:56:12.969Z,96.30
2022-12-08T02:57:35.312Z,96.30
2022-12-08T02:59:07.352Z,96.30
2022-12-08T03:00:16.609Z,96.30
2022-12-08T03:01:51.014Z,96.30
2022-12-08T03:03:10.344Z,96.30
2022-12-08T03:04:27.772Z,96.30
2022-12-08T03:05:55.796Z,96.30
2022-12-08T03:07:11.298Z,96.30
2022-12-08T03:08:21.909Z,96.30
2022-12-08T03:09:36.869Z,96.30
2022-12-08T03:10:48.110Z,96.30
2022-12-08T03:11:56.887Z,96.30
2022-12-08T03:13:06.696Z,96.30
2022-12-08T03:14:15.027Z,96.30
2022-12-08T03:15:22.179Z,96.30
2022-12-08T03:16:28.802Z,96.30
2022-12-08T03:17:33.551Z,96.30
2022-12-08T03:18:44.169Z,96.30
2022-12-08T03:19:50.423Z,96.30
2022-12-08T03:20:56.157Z,96.30
2022-12-08T03:22:03.869Z,96.30
2022-12-08T03:23:13.290Z,96.30
2022-12-08T03:24:20.427Z,96.30
2022-12-08T03:25:31.120Z,96.30
2022-12-08T03:26:44.994Z,96.30
2022-12-08T03:27:51.107Z,96.30
2022-12-08T03:28:56.533Z,96.30
2022-12-08T03:30:02.989Z,96.30
2022-12-08T03:31:10.063Z,96.30
2022-12-08T03:32:23.591Z,96.30
2022-12-08T03:33:31.564Z,96.30
2022-12-08T03:34:35.903Z,96.30
2022-12-08T03:35:43.279Z,96.30
2022-12-08T03:36:50.847Z,96.30
2022-12-08T03:38:03.234Z,96.30
2022-12-08T03:39:05.595Z,96.30
2022-12-08T03:40:15.558Z,96.30
2022-12-08T03:41:21.609Z,96.30
2022-12-08T03:42:24.964Z,96.30
2022-12-08T03:43:27.334Z,96.30
2022-12-08T03:44:32.744Z,96.30
2022-12-08T03:45:35.514Z,96.30
2022-12-08T03:46:41.380Z,96.30
2022-12-08T03:47:43.967Z,96.30
2022-12-08T03:48:49.581Z,96.30
2022-12-08T03:49:54.373Z,96.30
2022-12-08T03:50:59.609Z,96.30
2022-12-08T03:52:04.350Z,96.30
2022-12-08T03:53:06.847Z,96.30
2022-12-08T03:54:10.341Z,96.30
2022-12-08T03:55:12.870Z,96.30
2022-12-08T03:56:23.114Z,96.30
2022-12-08T03:57:25.662Z,96.30
2022-12-08T03:58:34.309Z,96.30
2022-12-08T03:59:41.037Z,96.30
2022-12-08T04:00:43.615Z,96.30
2022-12-08T04:01:47.066Z,96.30
2022-12-08T04:02:50.095Z,96.30
2022-12-08T04:03:53.888Z,96.30
2022-12-08T04:04:56.655Z,96.30
2022-12-08T04:06:00.231Z,96.30
2022-12-08T04:07:08.053Z,96.30
2022-12-08T04:08:10.775Z,96.30
2022-12-08T04:09:15.026Z,96.30
2022-12-08T04:10:17.717Z,96.30
2022-12-08T04:11:22.200Z,96.30
2022-12-08T04:12:24.735Z,96.30
2022-12-08T04:13:28.669Z,96.30
2022-12-08T04:14:31.033Z,96.30
2022-12-08T04:15:35.119Z,96.30
2022-12-08T04:16:38.681Z,96.30
2022-12-08T04:17:41.412Z,96.30
2022-12-08T04:18:47.943Z,96.30
2022-12-08T04:19:50.652Z,96.30
2022-12-08T04:20:54.835Z,96.30
2022-12-08T04:22:00.124Z,96.30
2022-12-08T04:23:04.053Z,96.30
2022-12-08T04:24:10.467Z,96.30
2022-12-08T04:25:15.784Z,96.30
2022-12-08T04:26:19.214Z,96.30
2022-12-08T04:27:21.526Z,96.30
2022-12-08T04:28:25.058Z,96.30
2022-12-08T04:29:27.368Z,96.30
2022-12-08T04:30:31.169Z,96.30
2022-12-08T04:31:34.710Z,96.30
2022-12-08T04:32:37.087Z,96.30
2022-12-08T04:33:40.757Z,96.30
2022-12-08T04:34:45.801Z,96.30
2022-12-08T04:35:51.683Z,96.30
2022-12-08T04:36:57.387Z,96.30
2022-12-08T04:37:59.696Z,96.30
2022-12-08T04:39:07.035Z,96.30
2022-12-08T04:40:10.806Z,96.30
2022-12-08T04:41:16.123Z,96.30
2022-12-08T04:42:18.523Z,96.30
2022-12-08T04:43:24.184Z,96.30
2022-12-08T04:44:27.632Z,96.30
2022-12-08T04:45:30.326Z,96.30
2022-12-08T04:46:34.506Z,96.30
2022-12-08T04:47:37.680Z,96.30
2022-12-08T04:48:42.742Z,96.30
2022-12-08T04:49:45.096Z,96.30
2022-12-08T04:50:51.638Z,96.30
2022-12-08T04:51:56.656Z,96.30
2022-12-08T04:53:01.181Z,96.30
2022-12-08T04:54:05.555Z,96.30
2022-12-08T04:55:10.011Z,96.30
2022-12-08T04:56:17.615Z,96.30
2022-12-08T04:57:20.178Z,96.30
2022-12-08T04:58:23.880Z,96.30
2022-12-08T04:59:26.615Z,96.30
2022-12-08T05:00:29.954Z,96.30
2022-12-08T05:01:32.886Z,96.30
2022-12-08T05:02:38.947Z,96.30
2022-12-08T05:03:41.801Z,96.30
2022-12-08T05:04:49.064Z,96.30
2022-12-08T05:05:52.780Z,96.30
2022-12-08T05:06:55.279Z,96.30
2022-12-08T05:07:59.718Z,96.30
2022-12-08T05:09:06.330Z,96.30
2022-12-08T05:10:10.311Z,96.30
2022-12-08T05:11:14.084Z,96.30
2022-12-08T05:12:17.567Z,96.30
2022-12-08T05:13:22.380Z,96.30
2022-12-08T05:14:26.040Z,96.30
2022-12-08T05:15:30.981Z,96.30
2022-12-08T05:16:34.436Z,96.30
2022-12-08T05:17:39.155Z,96.30
2022-12-08T05:18:45.266Z,96.30
2022-12-08T05:19:47.926Z,96.30
2022-12-08T05:20:51.323Z,96.30
2022-12-08T05:21:53.798Z,96.30
2022-12-08T05:22:57.391Z,96.30
2022-12-08T05:23:59.857Z,96.30
2022-12-08T05:25:05.257Z,96.30
2022-12-08T05:26:07.965Z,96.30
2022-12-08T05:27:13.882Z,96.30
2022-12-08T05:28:40.236Z,96.30
2022-12-08T05:29:39.988Z,96.30
2022-12-08T05:30:42.521Z,96.30
2022-12-08T05:31:45.942Z,96.30
2022-12-08T05:32:49.667Z,96.30
2022-12-08T05:33:55.724Z,96.30
2022-12-08T05:35:01.097Z,96.30
2022-12-08T05:36:07.802Z,96.30
2022-12-08T05:37:14.040Z,96.30
2022-12-08T05:38:17.663Z,96.30
2022-12-08T05:39:20.236Z,96.30
2022-12-08T05:40:25.015Z,96.30
2022-12-08T05:41:28.866Z,96.30
2022-12-08T05:42:31.542Z,96.30
2022-12-08T05:43:35.464Z,96.30
2022-12-08T05:44:37.878Z,96.30
2022-12-08T05:45:41.661Z,96.30
2022-12-08T05:46:47.052Z,96.30
2022-12-08T05:47:54.568Z,96.30
2022-12-08T05:48:58.976Z,96.30
2022-12-08T05:50:05.739Z,96.30
2022-12-08T05:51:20.254Z,96.30
2022-12-08T05:52:23.717Z,96.30
2022-12-08T05:53:26.056Z,96.30
2022-12-08T05:54:29.372Z,96.30
2022-12-08T05:55:34.839Z,96.30
2022-12-08T05:56:38.264Z,96.30
2022-12-08T05:57:40.640Z,96.30
2022-12-08T05:58:44.252Z,96.30
2022-12-08T05:59:49.045Z,96.30
2022-12-08T06:00:53.231Z,96.30
2022-12-08T06:01:56.941Z,96.30
2022-12-08T06:02:59.762Z,96.30
2022-12-08T06:04:05.016Z,96.30
2022-12-08T06:05:08.439Z,96.30
2022-12-08T06:06:11.852Z,96.30
2022-12-08T06:07:16.172Z,96.30
2022-12-08T06:08:22.388Z,96.30
2022-12-08T06:09:26.148Z,96.30
2022-12-08T06:10:29.043Z,96.30
2022-12-08T06:11:36.248Z,96.30
2022-12-08T06:12:42.007Z,96.30
2022-12-08T06:13:45.399Z,96.30
2022-12-08T06:14:52.675Z,96.30
2022-12-08T06:16:03.264Z,96.30
2022-12-08T06:17:07.011Z,96.30
2022-12-08T06:18:14.872Z,96.30
2022-12-08T06:19:18.339Z,96.30
2022-12-08T06:20:22.608Z,96.30
2022-12-08T06:21:26.277Z,96.30
2022-12-08T06:22:30.612Z,96.30
2022-12-08T06:23:33.113Z,96.30
2022-12-08T06:24:38.663Z,96.30
2022-12-08T06:25:41.090Z,96.30
2022-12-08T06:26:46.969Z,96.30
2022-12-08T06:27:50.868Z,96.30
2022-12-08T06:28:55.883Z,96.30
2022-12-08T06:29:59.456Z,96.30
2022-12-08T06:31:09.805Z,96.30
2022-12-08T06:32:13.713Z,96.30
2022-12-08T06:33:18.485Z,96.30
2022-12-08T06:34:21.845Z,96.30
2022-12-08T06:35:24.229Z,96.30
2022-12-08T06:36:31.506Z,96.30
2022-12-08T06:37:34.256Z,96.30
2022-12-08T06:38:41.819Z,96.30
2022-12-08T06:39:48.237Z,96.30
2022-12-08T06:40:55.976Z,96.30
2022-12-08T06:42:18.677Z,96.30
2022-12-08T06:43:22.088Z,96.30
2022-12-08T06:44:25.751Z,96.30
2022-12-08T06:45:31.658Z,96.30
2022-12-08T06:46:35.049Z,96.30
2022-12-08T06:47:37.587Z,96.30
2022-12-08T06:48:41.499Z,96.30
2022-12-08T06:49:43.886Z,96.30
2022-12-08T06:50:50.823Z,96.30
2022-12-08T06:51:54.328Z,96.30
2022-12-08T06:53:04.770Z,96.30
2022-12-08T06:54:08.639Z,96.30
2022-12-08T06:55:20.499Z,96.30
2022-12-08T06:56:34.955Z,96.30
2022-12-08T06:57:38.742Z,96.30
2022-12-08T06:58:46.166Z,96.30
2022-12-08T06:59:54.583Z,96.30
2022-12-08T07:01:06.616Z,96.30
2022-12-08T07:02:11.870Z,96.30
2022-12-08T07:03:14.789Z,96.30
2022-12-08T07:04:18.130Z,96.30
2022-12-08T07:05:22.964Z,96.30
2022-12-08T07:06:26.575Z,96.30
2022-12-08T07:07:29.123Z,96.30
2022-12-08T07:08:32.927Z,96.30
2022-12-08T07:09:35.360Z,96.30
2022-12-08T07:10:38.921Z,96.30
2022-12-08T07:11:42.559Z,96.30
2022-12-08T07:12:46.278Z,96.30
2022-12-08T07:13:50.126Z,96.30
2022-12-08T07:14:53.513Z,96.30
2022-12-08T07:15:55.850Z,96.30
2022-12-08T07:16:59.281Z,96.30
2022-12-08T07:18:01.706Z,96.30
2022-12-08T07:19:05.330Z,96.30
2022-12-08T07:20:08.815Z,96.30
2022-12-08T07:21:14.930Z,96.30
2022-12-08T07:22:21.147Z,96.30
2022-12-08T07:23:23.572Z,96.30
2022-12-08T07:24:29.604Z,96.30
2022-12-08T07:25:34.471Z,96.30
2022-12-08T07:26:38.028Z,96.30
2022-12-08T07:27:40.458Z,96.30
2022-12-08T07:28:45.727Z,96.30
2022-12-08T07:29:48.077Z,96.30
2022-12-08T07:30:51.435Z,96.30
2022-12-08T07:31:53.905Z,96.30
2022-12-08T07:32:57.366Z,96.30
2022-12-08T07:33:59.921Z,96.30
2022-12-08T07:35:03.507Z,96.30
2022-12-08T07:36:07.202Z,96.30
2022-12-08T07:37:10.819Z,96.30
2022-12-08T07:38:13.179Z,96.30
2022-12-08T07:39:16.841Z,96.30
2022-12-08T07:40:24.480Z,96.30
2022-12-08T07:41:29.030Z,96.30
2022-12-08T07:42:32.420Z,96.30
2022-12-08T07:43:34.865Z,96.30
2022-12-08T07:44:42.517Z,96.30
2022-12-08T07:45:46.941Z,96.30
2022-12-08T07:46:49.758Z,96.30
2022-12-08T07:47:53.243Z,96.30
2022-12-08T07:48:57.167Z,96.30
2022-12-08T07:50:01.234Z,96.30
2022-12-08T07:51:06.878Z,96.30
2022-12-08T07:52:10.432Z,96.30
2022-12-08T07:53:13.279Z,96.30
2022-12-08T07:54:16.683Z,96.30
2022-12-08T07:55:19.552Z,96.30
2022-12-08T07:56:23.616Z,96.30
2022-12-08T07:57:31.861Z,96.30
2022-12-08T07:58:36.529Z,96.30
2022-12-08T07:59:41.622Z,96.30
2022-12-08T08:00:45.131Z,96.30
2022-12-08T08:02:06.348Z,96.30
2022-12-08T08:03:15.207Z,96.30
2022-12-08T08:04:19.144Z,96.30
2022-12-08T08:05:23.600Z,96.30
2022-12-08T08:06:27.064Z,96.30
2022-12-08T08:07:31.782Z,96.30
2022-12-08T08:08:35.193Z,96.30
2022-12-08T08:09:38.794Z,96.30
2022-12-08T08:10:41.175Z,96.30
2022-12-08T08:12:01.083Z,96.30
2022-12-08T08:13:09.215Z,96.30
2022-12-08T08:14:12.980Z,96.30
2022-12-08T08:15:17.863Z,96.30
2022-12-08T08:16:26.401Z,96.30
2022-12-08T08:17:29.717Z,96.30
2022-12-08T08:18:35.165Z,96.30
2022-12-08T08:19:37.702Z,96.30
2022-12-08T08:20:43.574Z,96.30
2022-12-08T08:21:46.543Z,96.30
2022-12-08T08:22:52.463Z,96.30
2022-12-08T08:23:55.031Z,96.30
2022-12-08T08:24:58.492Z,96.30
2022-12-08T08:26:02.882Z,96.30
2022-12-08T08:27:06.496Z,96.30
2022-12-08T08:28:11.028Z,96.30
2022-12-08T08:29:14.625Z,96.30
2022-12-08T08:30:20.918Z,96.30
2022-12-08T08:31:26.978Z,96.30
2022-12-08T08:32:33.863Z,96.30
2022-12-08T08:33:36.296Z,96.30
2022-12-08T08:34:40.622Z,96.30
2022-12-08T08:35:43.028Z,96.30
2022-12-08T08:36:46.583Z,96.30
2022-12-08T08:37:49.697Z,96.30
2022-12-08T08:38:53.601Z,96.30
2022-12-08T08:39:57.560Z,96.30
2022-12-08T08:41:02.921Z,96.30
2022-12-08T08:42:05.493Z,96.30
2022-12-08T08:43:32.920Z,96.30
2022-12-08T08:44:39.967Z,96.30
2022-12-08T08:45:44.943Z,96.30
2022-12-08T08:46:48.578Z,96.30
2022-12-08T08:47:54.178Z,96.30
2022-12-08T08:48:59.105Z,96.30
2022-12-08T08:50:04.629Z,96.30
2022-12-08T08:51:10.621Z,96.30
2022-12-08T08:52:14.062Z,96.30
2022-12-08T08:53:22.073Z,96.30
2022-12-08T08:54:25.512Z,96.30
2022-12-08T08:55:31.268Z,96.30
2022-12-08T08:56:34.681Z,96.30
2022-12-08T08:57:37.102Z,96.30
2022-12-08T08:58:40.503Z,96.30
2022-12-08T08:59:43.977Z,96.30
2022-12-08T09:00:51.050Z,96.30
2022-12-08T09:01:56.405Z,96.30
2022-12-08T09:03:00.126Z,96.30
2022-12-08T09:04:03.655Z,96.30
2022-12-08T09:05:08.753Z,96.30
2022-12-08T09:06:12.437Z,96.30
2022-12-08T09:07:16.355Z,96.30
2022-12-08T09:08:20.008Z,96.30
2022-12-08T09:09:23.512Z,96.30
2022-12-08T09:10:27.070Z,96.30
2022-12-08T09:11:30.439Z,96.30
2022-12-08T09:12:35.123Z,96.30
2022-12-08T09:13:40.549Z,96.30
2022-12-08T09:14:43.109Z,96.30
2022-12-08T09:15:49.868Z,96.30
2022-12-08T09:16:57.154Z,96.30
2022-12-08T09:17:59.610Z,96.30
2022-12-08T09:19:03.620Z,96.30
2022-12-08T09:20:09.384Z,96.30
2022-12-08T09:21:16.766Z,96.30
2022-12-08T09:22:20.141Z,96.30
2022-12-08T09:23:22.880Z,96.30
2022-12-08T09:24:26.279Z,96.30
2022-12-08T09:25:30.953Z,96.30
2022-12-08T09:26:34.358Z,96.30
2022-12-08T09:27:38.184Z,96.30
2022-12-08T09:28:46.174Z,96.30
2022-12-08T09:29:50.050Z,96.30
2022-12-08T09:30:56.251Z,96.30
2022-12-08T09:32:03.598Z,96.30
2022-12-08T09:33:06.046Z,96.30
2022-12-08T09:34:09.657Z,96.30
2022-12-08T09:35:12.278Z,96.30
2022-12-08T09:36:18.315Z,96.30
2022-12-08T09:37:24.222Z,96.30
2022-12-08T09:38:27.601Z,96.30
2022-12-08T09:39:33.072Z,96.30
2022-12-08T09:40:46.019Z,96.30
2022-12-08T09:41:57.380Z,96.30
2022-12-08T09:43:19.834Z,96.30
2022-12-08T09:44:47.654Z,96.30
2022-12-08T09:45:52.458Z,96.30
2022-12-08T09:46:58.450Z,96.30
2022-12-08T09:48:11.470Z,96.30
2022-12-08T09:49:17.665Z,96.30
2022-12-08T09:50:32.383Z,96.30
2022-12-08T09:51:41.810Z,96.30
2022-12-08T09:53:01.575Z,96.30
2022-12-08T09:54:09.767Z,96.30
2022-12-08T09:55:23.226Z,96.30
2022-12-08T09:56:32.906Z,96.30
2022-12-08T09:57:36.778Z,96.30
2022-12-08T09:58:52.000Z,96.30
2022-12-08T10:00:05.201Z,96.30
2022-12-08T10:01:10.174Z,96.30
2022-12-08T10:02:26.043Z,96.30
2022-12-08T10:03:33.176Z,96.30
2022-12-08T10:04:39.336Z,96.30
2022-12-08T10:05:53.272Z,96.30
2022-12-08T10:07:08.713Z,96.30
2022-12-08T10:08:21.193Z,96.30
2022-12-08T10:09:38.830Z,96.30
2022-12-08T10:10:48.640Z,96.30
2022-12-08T10:12:03.393Z,96.30
2022-12-08T10:13:20.936Z,96.30
2022-12-08T10:14:35.227Z,96.30
2022-12-08T10:15:48.331Z,96.30
2022-12-08T10:17:00.890Z,96.30
2022-12-08T10:18:11.618Z,96.30
2022-12-08T10:19:22.323Z,96.30
2022-12-08T10:20:36.004Z,96.30
2022-12-08T10:21:42.012Z,96.30
2022-12-08T10:22:50.605Z,96.30
2022-12-08T10:24:01.144Z,96.30
2022-12-08T10:25:13.266Z,96.30
2022-12-08T10:26:18.995Z,96.30
2022-12-08T10:27:26.183Z,96.30
2022-12-08T10:28:30.224Z,96.30
2022-12-08T10:29:34.509Z,96.30
2022-12-08T10:30:37.419Z,96.30
2022-12-08T10:31:42.064Z,96.30
2022-12-08T10:32:48.390Z,96.30
2022-12-08T10:33:59.687Z,96.30
2022-12-08T10:35:10.130Z,96.30
2022-12-08T10:36:12.623Z,96.30
2022-12-08T10:37:18.438Z,96.30
2022-12-08T10:38:28.262Z,96.30
2022-12-08T10:39:38.868Z,96.30
2022-12-08T10:40:45.857Z,96.30
2022-12-08T10:41:53.317Z,96.30
2022-12-08T10:43:01.231Z,96.30
2022-12-08T10:44:04.563Z,96.30
2022-12-08T10:45:24.664Z,96.30
2022-12-08T10:46:31.314Z,96.30
2022-12-08T10:47:44.595Z,96.30
2022-12-08T10:48:52.502Z,96.30
2022-12-08T10:50:22.827Z,96.30
2022-12-08T10:51:38.836Z,96.30
2022-12-08T10:52:43.524Z,96.30
2022-12-08T10:53:50.582Z,96.30
2022-12-08T10:54:55.303Z,96.30
2022-12-08T10:56:15.362Z,96.30
2022-12-08T10:57:23.653Z,96.30
2022-12-08T10:58:31.203Z,96.30
2022-12-08T10:59:35.684Z,96.30
2022-12-08T11:00:41.036Z,96.30
2022-12-08T11:01:48.749Z,96.30
2022-12-08T11:02:57.532Z,96.30
2022-12-08T11:04:06.259Z,96.30
2022-12-08T11:05:19.582Z,96.30
2022-12-08T11:06:35.603Z,96.30
2022-12-08T11:07:38.069Z,96.30
2022-12-08T11:08:53.105Z,96.30
2022-12-08T11:09:59.564Z,96.30
2022-12-08T11:11:02.214Z,96.30
2022-12-08T11:12:10.657Z,96.30
2022-12-08T11:13:22.409Z,96.30
2022-12-08T11:14:28.497Z,96.30
2022-12-08T11:15:38.312Z,96.30
2022-12-08T11:16:45.035Z,96.30
2022-12-08T11:18:03.159Z,96.30
2022-12-08T11:19:07.488Z,96.30
2022-12-08T11:20:23.628Z,96.30
2022-12-08T11:21:37.969Z,96.30
2022-12-08T11:22:43.314Z,96.30
2022-12-08T11:23:51.803Z,96.30
2022-12-08T11:25:02.428Z,96.30
2022-12-08T11:26:21.740Z,96.30
2022-12-08T11:27:24.278Z,96.30
2022-12-08T11:28:27.701Z,96.30
2022-12-08T11:29:33.844Z,96.30
2022-12-08T11:30:43.109Z,96.30
2022-12-08T11:31:50.860Z,96.30
2022-12-08T11:32:59.720Z,96.30
2022-12-08T11:34:04.305Z,96.30
2022-12-08T11:35:19.353Z,96.30
2022-12-08T11:36:31.055Z,96.30
2022-12-08T11:37:41.304Z,96.30
2022-12-08T11:38:48.444Z,96.30
2022-12-08T11:39:58.039Z,96.30
2022-12-08T11:41:10.828Z,96.30
2022-12-08T11:42:24.748Z,96.30
2022-12-08T11:43:40.530Z,96.30
2022-12-08T11:44:52.190Z,96.30
2022-12-08T11:46:01.377Z,96.30
2022-12-08T11:47:17.102Z,96.30
2022-12-08T11:48:32.360Z,96.30
2022-12-08T11:49:39.513Z,96.30
2022-12-08T11:50:51.405Z,96.30
2022-12-08T11:52:05.134Z,96.30
2022-12-08T11:53:19.826Z,96.30
2022-12-08T11:54:31.677Z,96.30
2022-12-08T11:55:41.632Z,96.30
2022-12-08T11:56:52.643Z,96.30
2022-12-08T11:57:58.273Z,96.30
2022-12-08T11:59:18.450Z,96.30
2022-12-08T12:00:22.578Z,96.30
2022-12-08T12:01:29.275Z,96.30
2022-12-08T12:02:42.671Z,96.30
2022-12-08T12:03:56.582Z,96.30
2022-12-08T12:05:06.224Z,96.30
2022-12-08T12:06:56.555Z,96.30
2022-12-08T12:08:21.860Z,96.30
2022-12-08T12:09:40.382Z,96.30
2022-12-08T12:11:05.759Z,96.30
2022-12-08T12:12:26.020Z,96.30
2022-12-08T12:14:02.071Z,96.30
2022-12-08T12:16:10.989Z,96.30
2022-12-08T12:17:36.236Z,96.30
2022-12-08T12:18:46.534Z,96.30
2022-12-08T12:19:50.084Z,96.30
2022-12-08T12:20:59.210Z,96.30
2022-12-08T12:22:14.049Z,96.30
2022-12-08T12:23:24.882Z,96.30
2022-12-08T12:24:36.248Z,96.30
2022-12-08T12:25:48.982Z,96.30
2022-12-08T12:26:59.874Z,96.30
2022-12-08T12:28:09.524Z,96.30
2022-12-08T12:29:19.648Z,96.30
2022-12-08T12:30:27.227Z,96.30
2022-12-08T12:31:32.947Z,96.30
2022-12-08T12:32:47.290Z,96.30
2022-12-08T12:33:58.962Z,96.30
2022-12-08T12:35:01.344Z,96.30
2022-12-08T12:36:08.708Z,96.30
2022-12-08T12:37:16.310Z,96.30
2022-12-08T12:38:46.258Z,96.30
2022-12-08T12:39:59.011Z,96.30
2022-12-08T12:41:06.886Z,96.30
2022-12-08T12:42:30.849Z,96.30
2022-12-08T12:43:36.125Z,96.30
2022-12-08T12:44:43.416Z,96.30
2022-12-08T12:45:49.883Z,96.30
2022-12-08T12:47:05.502Z,96.30
2022-12-08T12:48:27.309Z,96.30
2022-12-08T12:49:54.216Z,96.30
2022-12-08T12:50:59.931Z,96.30
2022-12-08T12:52:02.699Z,96.30
2022-12-08T12:53:52.692Z,96.30
2022-12-08T12:55:25.910Z,95.90
2022-12-08T12:56:51.941Z,95.40
2022-12-08T12:57:58.313Z,94.80
2022-12-08T12:59:41.689Z,94.50
2022-12-08T13:00:47.358Z,94.50
2022-12-08T13:01:56.471Z,94.20
2022-12-08T13:03:00.042Z,93.80
2022-12-08T13:04:07.499Z,93.40
2022-12-08T13:05:21.008Z,93.50
2022-12-08T13:06:35.825Z,93.60
2022-12-08T13:07:50.054Z,93.40
2022-12-08T13:08:56.269Z,93.40
2022-12-08T13:10:15.030Z,93.60
2022-12-08T13:11:17.844Z,93.70
2022-12-08T13:12:25.599Z,93.70
2022-12-08T13:13:29.683Z,93.70
2022-12-08T13:14:35.873Z,94.00
2022-12-08T13:15:43.058Z,94.20
2022-12-08T13:16:45.644Z,94.30
2022-12-08T13:17:54.206Z,94.50
2022-12-08T13:18:59.118Z,94.80
2022-12-08T13:20:07.600Z,94.50
2022-12-08T13:21:15.085Z,94.80
2022-12-08T13:23:03.794Z,95.00
2022-12-08T13:24:32.114Z,95.20
2022-12-08T13:25:54.987Z,95.60
2022-12-08T13:27:35.612Z,96.00
2022-12-08T13:29:22.661Z,96.20
2022-12-08T13:30:51.180Z,96.30
2022-12-08T13:31:58.067Z,95.90
2022-12-08T13:33:17.708Z,95.80
2022-12-08T13:34:31.399Z,95.60
2022-12-08T13:35:35.828Z,95.40
2022-12-08T13:36:49.160Z,95.30
2022-12-08T13:37:55.374Z,95.30
2022-12-08T13:39:01.231Z,95.20
2022-12-08T13:40:14.596Z,95.20
2022-12-08T13:41:23.217Z,95.10
2022-12-08T13:42:33.750Z,94.90
2022-12-08T13:44:10.265Z,94.70
2022-12-08T13:45:39.660Z,94.60
2022-12-08T13:47:24.688Z,94.40
2022-12-08T13:48:41.655Z,94.50
2022-12-08T13:53:49.432Z,94.50
2022-12-08T13:56:52.440Z,94.50
2022-12-08T13:57:32.769Z,94.50
2022-12-08T13:58:39.160Z,94.70
2022-12-08T13:59:46.935Z,94.80
2022-12-08T14:01:07.097Z,94.80
2022-12-08T14:02:21.667Z,94.90
2022-12-08T14:03:24.586Z,95.00
2022-12-08T14:05:16.408Z,95.10
2022-12-08T14:06:12.609Z,95.10
2022-12-08T14:07:17.488Z,95.20
2022-12-08T14:08:58.295Z,95.30
2022-12-08T14:09:59.829Z,95.30
2022-12-08T14:11:07.396Z,95.40
2022-12-08T14:12:21.718Z,95.50
2022-12-08T14:13:25.658Z,95.60
2022-12-08T14:15:01.102Z,95.60
2022-12-08T14:16:02.364Z,95.70
2022-12-08T14:17:11.407Z,95.70
2022-12-08T14:18:26.809Z,95.80
2022-12-08T14:19:33.229Z,95.80
2022-12-08T14:21:12.050Z,95.90
2022-12-08T14:22:15.053Z,95.90
2022-12-08T14:23:19.224Z,96.10
2022-12-08T14:24:26.149Z,96.20
2022-12-08T14:25:31.947Z,96.20
2022-12-08T14:26:35.725Z,96.30
2022-12-08T14:27:39.745Z,96.30
2022-12-08T14:28:45.228Z,96.30
2022-12-08T14:29:54.062Z,96.30
2022-12-08T14:30:57.318Z,96.30
2022-12-08T14:32:04.640Z,96.30
2022-12-08T14:33:17.645Z,96.30
2022-12-08T14:34:20.342Z,96.30
2022-12-08T14:35:29.332Z,96.30
2022-12-08T14:36:33.920Z,96.30
2022-12-08T14:37:43.854Z,96.30
2022-12-08T14:38:48.129Z,96.30
2022-12-08T14:39:52.385Z,96.30
2022-12-08T14:41:04.580Z,96.30
2022-12-08T14:42:21.877Z,96.30
2022-12-08T14:43:30.189Z,96.30
2022-12-08T14:44:39.452Z,96.30